Time;durP1;ratioP1;P1;durP2;ratioP2;P2;SDS_P1;SDS_P2;PMS_P1;PMS_P2;Temp;Humidity;BMP_temperature;BMP_pressure;BME280_temperature;BME280_humidity;BME280_pressure;Samples;Min_cycle;Max_cycle;Signal;HPM_P1;HPM_P2
2024/01/07 00:00:17;;;;;;;47.40;27.70;;;;;;;7.50;100.00;98580.88;5076570;28;20033;-65
2024/01/07 00:02:42;;;;;;;48.13;27.98;;;;;;;7.51;100.00;98596.50;5076695;28;20123;-64
2024/01/07 00:05:08;;;;;;;50.10;27.58;;;;;;;7.51;100.00;98593.06;5076460;28;20222;-65
2024/01/07 00:07:33;;;;;;;47.60;27.98;;;;;;;7.61;100.00;98577.88;5076462;28;20156;-66
2024/01/07 00:09:58;;;;;;;51.45;28.38;;;;;;;7.76;100.00;98572.69;5076829;28;20036;-66
2024/01/07 00:12:25;;;;;;;45.35;27.40;;;;;;;7.88;100.00;98553.69;5076504;28;20040;-64
2024/01/07 00:14:50;;;;;;;52.95;29.23;;;;;;;8.00;100.00;98541.75;5076397;28;20674;-64
2024/01/07 00:17:16;;;;;;;55.20;29.58;;;;;;;8.04;98.73;98536.13;5076245;28;20043;-65
2024/01/07 00:19:42;;;;;;;52.35;30.83;;;;;;;7.84;99.71;98515.50;5076438;28;20059;-62
2024/01/07 00:22:07;;;;;;;60.97;32.15;;;;;;;7.90;99.18;98504.25;5076506;28;20037;-64
2024/01/07 00:24:32;;;;;;;67.82;34.75;;;;;;;7.83;99.44;98518.28;5074973;28;20350;-65
2024/01/07 00:26:58;;;;;;;58.92;29.70;;;;;;;7.83;99.60;98542.84;5075860;28;20044;-63
2024/01/07 00:29:23;;;;;;;60.28;30.27;;;;;;;7.67;100.00;98527.13;5076520;28;20261;-62
2024/01/07 00:31:49;;;;;;;57.97;32.25;;;;;;;7.69;100.00;98544.41;5076305;28;20048;-64
2024/01/07 00:34:14;;;;;;;54.83;32.58;;;;;;;7.87;100.00;98530.13;5076420;28;20103;-64
2024/01/07 00:36:40;;;;;;;58.28;31.98;;;;;;;7.89;100.00;98528.97;5075766;28;20044;-66
2024/01/07 00:39:06;;;;;;;56.78;31.13;;;;;;;7.94;99.73;98507.34;5076228;28;20327;-66
2024/01/07 00:41:31;;;;;;;59.28;30.00;;;;;;;8.05;99.51;98525.41;5076405;28;20048;-62
2024/01/07 00:43:57;;;;;;;59.35;32.00;;;;;;;8.06;98.54;98507.75;5076235;28;20195;-63
2024/01/07 00:46:22;;;;;;;60.92;33.08;;;;;;;7.99;99.30;98529.56;5076359;28;20356;-62
2024/01/07 00:48:47;;;;;;;56.90;31.92;;;;;;;7.83;100.00;98516.47;5077060;28;20040;-62
2024/01/07 00:51:13;;;;;;;73.53;36.88;;;;;;;7.96;100.00;98493.00;5076042;28;20036;-64
2024/01/07 00:53:38;;;;;;;57.03;31.55;;;;;;;7.63;100.00;98497.66;5075790;28;20029;-64
2024/01/07 00:56:05;;;;;;;55.22;32.63;;;;;;;7.78;100.00;98486.38;5075077;28;20048;-64
2024/01/07 00:58:30;;;;;;;67.55;35.60;;;;;;;7.87;100.00;98487.97;5075703;28;20214;-63
2024/01/07 01:00:55;;;;;;;65.65;34.15;;;;;;;7.94;100.00;98488.91;5074706;28;20041;-64
2024/01/07 01:03:21;;;;;;;60.65;31.33;;;;;;;8.04;100.00;98460.47;5075766;28;20251;-61
2024/01/07 01:05:46;;;;;;;54.35;32.90;;;;;;;8.11;100.00;98461.41;5075411;28;20085;-63
2024/01/07 01:08:12;;;;;;;59.92;32.42;;;;;;;8.12;100.00;98443.78;5079218;28;20028;-64
2024/01/07 01:10:37;;;;;;;55.95;30.10;;;;;;;8.13;100.00;98469.16;5080178;28;20268;-62
2024/01/07 01:13:03;;;;;;;54.85;30.30;;;;;;;8.24;100.00;98466.09;5080940;28;20879;-62
2024/01/07 01:15:29;;;;;;;49.17;29.65;;;;;;;8.27;100.00;98439.34;5080405;28;20195;-62
2024/01/07 01:17:54;;;;;;;59.05;34.22;;;;;;;8.26;100.00;98432.44;5080296;28;20043;-62
2024/01/07 01:20:20;;;;;;;56.90;31.98;;;;;;;8.32;100.00;98387.75;5080326;28;20079;-64
2024/01/07 01:22:45;;;;;;;54.20;31.50;;;;;;;8.08;100.00;98372.13;5079948;28;20044;-65
2024/01/07 01:25:11;;;;;;;56.15;32.55;;;;;;;8.24;100.00;98374.63;5079847;28;20062;-64
2024/01/07 01:27:37;;;;;;;61.13;32.22;;;;;;;8.38;100.00;98380.13;5079280;28;20319;-64
2024/01/07 01:30:02;;;;;;;54.70;32.78;;;;;;;8.29;100.00;98355.59;5079785;28;20359;-64
2024/01/07 01:32:28;;;;;;;53.65;30.27;;;;;;;7.71;100.00;98351.06;5079042;28;20032;-64
2024/01/07 01:34:53;;;;;;;57.28;32.20;;;;;;;7.28;100.00;98366.50;5079686;28;20078;-65
2024/01/07 01:37:19;;;;;;;53.70;31.25;;;;;;;7.20;100.00;98356.84;5078671;28;20062;-66
2024/01/07 01:39:44;;;;;;;57.95;32.85;;;;;;;7.16;100.00;98345.03;5079293;28;20073;-64
2024/01/07 01:42:10;;;;;;;47.08;30.00;;;;;;;6.74;100.00;98348.06;5078842;28;20051;-65
2024/01/07 01:44:35;;;;;;;60.08;32.70;;;;;;;6.86;100.00;98343.22;5078445;28;20037;-64
2024/01/07 01:47:01;;;;;;;65.43;33.88;;;;;;;7.11;100.00;98336.00;5078779;28;20310;-65
2024/01/07 01:49:27;;;;;;;50.63;31.40;;;;;;;7.32;100.00;98323.06;5079169;28;20032;-64
2024/01/07 01:51:53;;;;;;;57.53;34.28;;;;;;;7.53;100.00;98307.41;5078631;28;20085;-63
2024/01/07 01:54:19;;;;;;;57.88;31.40;;;;;;;7.15;100.00;98300.44;5078958;28;20037;-63
2024/01/07 01:56:45;;;;;;;59.20;30.40;;;;;;;6.94;100.00;98296.63;5079308;28;20051;-64
2024/01/07 01:59:11;;;;;;;61.13;32.08;;;;;;;6.90;100.00;98290.09;5077149;28;20048;-64
2024/01/07 02:01:38;;;;;;;47.92;30.73;;;;;;;6.99;100.00;98280.31;5077447;28;20086;-66
2024/01/07 02:04:04;;;;;;;57.60;29.15;;;;;;;7.04;100.00;98284.06;5077577;28;20033;-66
2024/01/07 02:06:29;;;;;;;55.53;29.52;;;;;;;6.86;100.00;98277.44;5078527;28;20058;-65
2024/01/07 02:08:55;;;;;;;51.13;28.42;;;;;;;7.11;100.00;98249.97;5077111;28;20039;-64
2024/01/07 02:11:22;;;;;;;51.05;29.02;;;;;;;7.33;100.00;98240.44;5077757;28;20040;-64
2024/01/07 02:13:48;;;;;;;43.53;25.00;;;;;;;7.45;100.00;98239.00;5078180;28;20039;-65
2024/01/07 02:16:14;;;;;;;36.22;21.00;;;;;;;7.63;100.00;98222.88;5078263;28;20040;-66
2024/01/07 02:18:45;;;;;;;16.83;9.20;;;;;;;8.21;100.00;98210.69;5079043;28;20036;-64
2024/01/07 02:21:12;;;;;;;17.00;9.05;;;;;;;8.80;100.00;98200.84;5078027;28;20059;-64
2024/01/07 02:23:38;;;;;;;17.70;7.68;;;;;;;9.18;100.00;98188.19;5079316;28;20040;-64
2024/01/07 02:26:03;;;;;;;16.15;9.10;;;;;;;9.40;100.00;98175.78;5076953;28;20048;-66
2024/01/07 02:28:30;;;;;;;17.40;8.40;;;;;;;9.57;100.00;98192.16;5078867;28;20036;-66
2024/01/07 02:30:55;;;;;;;14.52;8.43;;;;;;;9.72;100.00;98203.44;5078138;28;20040;-63
2024/01/07 02:33:20;;;;;;;14.02;7.63;;;;;;;9.81;100.00;98190.88;5078480;28;20326;-64
2024/01/07 02:35:46;;;;;;;17.23;7.72;;;;;;;9.94;100.00;98190.94;5076871;28;20040;-66
2024/01/07 02:38:11;;;;;;;12.60;6.70;;;;;;;10.01;100.00;98193.63;5078487;28;20028;-66
2024/01/07 02:40:37;;;;;;;10.23;6.72;;;;;;;10.06;100.00;98178.78;5077153;28;20040;-64
2024/01/07 02:43:02;;;;;;;15.07;7.18;;;;;;;10.08;100.00;98175.94;5078163;28;20028;-64
2024/01/07 02:45:28;;;;;;;12.27;6.93;;;;;;;10.15;100.00;98158.28;5077341;28;20036;-64
2024/01/07 02:47:53;;;;;;;10.48;7.07;;;;;;;10.17;100.00;98145.66;5078033;28;20033;-62
2024/01/07 02:50:19;;;;;;;9.82;6.45;;;;;;;10.23;100.00;98135.16;5076542;28;20047;-62
2024/01/07 02:52:45;;;;;;;9.95;7.03;;;;;;;10.27;100.00;98146.16;5077971;28;20028;-65
2024/01/07 02:55:10;;;;;;;15.50;7.68;;;;;;;10.28;100.00;98153.06;5078608;28;20037;-66
2024/01/07 02:57:36;;;;;;;13.93;6.95;;;;;;;10.29;100.00;98127.44;5076704;28;20199;-64
2024/01/07 03:00:02;;;;;;;14.98;6.75;;;;;;;10.27;100.00;98127.63;5078811;28;20039;-62
2024/01/07 03:02:28;;;;;;;12.55;6.45;;;;;;;10.31;100.00;98134.16;5075619;28;20419;-61
2024/01/07 03:04:53;;;;;;;12.68;4.88;;;;;;;10.31;100.00;98131.50;5077353;28;20462;-61
2024/01/07 03:07:19;;;;;;;9.18;4.90;;;;;;;10.38;100.00;98147.41;5075077;28;20036;-65
2024/01/07 03:09:44;;;;;;;7.20;4.28;;;;;;;10.40;100.00;98140.91;5078225;28;20040;-66
2024/01/07 03:12:10;;;;;;;7.25;5.53;;;;;;;10.50;100.00;98141.34;5077379;28;20044;-64
2024/01/07 03:14:35;;;;;;;10.95;5.18;;;;;;;10.57;100.00;98136.06;5076938;28;20037;-65
2024/01/07 03:17:01;;;;;;;9.18;5.60;;;;;;;10.63;100.00;98139.75;5075628;28;20273;-63
2024/01/07 03:19:26;;;;;;;10.48;5.65;;;;;;;10.67;100.00;98131.19;5076872;28;20033;-62
2024/01/07 03:21:52;;;;;;;8.93;5.28;;;;;;;10.72;100.00;98131.41;5075028;28;20234;-64
2024/01/07 03:24:17;;;;;;;9.75;5.32;;;;;;;10.67;100.00;98144.44;5077317;28;20082;-66
2024/01/07 03:26:43;;;;;;;7.93;5.68;;;;;;;10.67;100.00;98152.38;5077773;28;20040;-66
2024/01/07 03:29:08;;;;;;;8.82;5.93;;;;;;;10.88;100.00;98157.50;5076208;28;20044;-62
2024/01/07 03:31:34;;;;;;;18.15;10.70;;;;;;;10.95;100.00;98143.44;5078219;28;20064;-62
2024/01/07 03:34:00;;;;;;;20.08;10.98;;;;;;;10.91;100.00;98150.16;5076298;28;20107;-62
2024/01/07 03:36:25;;;;;;;17.05;9.95;;;;;;;11.00;100.00;98146.28;5076779;28;20041;-62
2024/01/07 03:38:52;;;;;;;17.90;10.68;;;;;;;10.91;100.00;98155.47;5075539;28;20055;-62
2024/01/07 03:41:19;;;;;;;21.00;12.43;;;;;;;10.94;100.00;98163.00;5077231;28;20059;-64
2024/01/07 03:43:46;;;;;;;21.27;12.52;;;;;;;10.99;100.00;98182.56;5075505;28;20271;-62
2024/01/07 03:46:12;;;;;;;31.48;14.73;;;;;;;10.96;100.00;98180.31;5077656;28;20064;-63
2024/01/07 03:48:37;;;;;;;31.98;19.00;;;;;;;10.97;100.00;98183.78;5072979;28;20267;-62
2024/01/07 03:51:03;;;;;;;33.47;18.25;;;;;;;10.80;100.00;98151.56;5076822;28;20047;-62
2024/01/07 03:53:28;;;;;;;30.83;15.93;;;;;;;10.60;100.00;98137.50;5076802;28;20028;-62
2024/01/07 03:55:54;;;;;;;22.67;11.18;;;;;;;10.26;100.00;98120.72;5076180;28;20269;-64
2024/01/07 03:58:20;;;;;;;16.30;9.10;;;;;;;10.36;100.00;98112.38;5075847;28;20031;-66
2024/01/07 04:00:45;;;;;;;14.93;8.68;;;;;;;10.41;100.00;98105.50;5075924;28;20041;-64
2024/01/07 04:03:11;;;;;;;14.75;9.02;;;;;;;10.40;100.00;98097.75;5075851;28;20369;-64
2024/01/07 04:05:37;;;;;;;14.13;7.75;;;;;;;10.43;100.00;98094.72;5074771;28;20455;-65
2024/01/07 04:08:03;;;;;;;17.00;8.30;;;;;;;10.48;100.00;98090.47;5075997;28;20036;-63
2024/01/07 04:10:29;;;;;;;13.32;7.57;;;;;;;10.47;100.00;98070.31;5074085;28;20036;-65
2024/01/07 04:12:55;;;;;;;13.63;8.25;;;;;;;10.44;100.00;98049.53;5077673;28;20096;-64
2024/01/07 04:15:20;;;;;;;15.45;9.52;;;;;;;10.44;100.00;98046.09;5075090;28;20318;-64
2024/01/07 04:17:46;;;;;;;14.77;9.98;;;;;;;10.52;100.00;98032.66;5075863;28;20225;-64
2024/01/07 04:20:14;;;;;;;17.02;9.85;;;;;;;10.51;100.00;98023.91;5074684;28;20242;-63
2024/01/07 04:22:40;;;;;;;13.65;9.98;;;;;;;10.60;100.00;98002.53;5076672;28;20032;-63
2024/01/07 04:25:10;;;;;;;12.48;9.15;;;;;;;10.71;100.00;98004.53;5076256;28;20039;-65
2024/01/07 04:27:36;;;;;;;14.55;9.68;;;;;;;10.56;100.00;98052.41;5075914;28;20033;-63
2024/01/07 04:30:02;;;;;;;14.57;9.60;;;;;;;10.60;100.00;98053.63;5075317;28;20032;-63
2024/01/07 04:32:28;;;;;;;13.43;9.43;;;;;;;10.76;100.00;98068.28;5076442;28;20032;-64
2024/01/07 04:34:53;;;;;;;13.65;8.93;;;;;;;10.93;100.00;98068.69;5076037;28;20074;-66
2024/01/07 04:37:19;;;;;;;13.60;9.45;;;;;;;10.97;100.00;98062.78;5076190;28;20033;-64
2024/01/07 04:39:44;;;;;;;28.02;17.88;;;;;;;10.96;100.00;98074.38;5076775;28;20032;-64
2024/01/07 04:42:10;;;;;;;35.67;21.10;;;;;;;10.78;100.00;98072.34;5075286;28;20238;-64
2024/01/07 04:44:35;;;;;;;30.33;18.10;;;;;;;10.74;100.00;98094.16;5076303;28;20051;-64
2024/01/07 04:47:01;;;;;;;23.42;13.45;;;;;;;10.77;100.00;98121.03;5072121;28;20033;-64
2024/01/07 04:49:26;;;;;;;24.55;14.02;;;;;;;10.79;100.00;98137.53;5075305;28;20043;-64
2024/01/07 04:51:52;;;;;;;43.97;24.33;;;;;;;10.60;100.00;98130.38;5073656;28;20040;-65
2024/01/07 04:54:18;;;;;;;45.83;25.38;;;;;;;10.39;100.00;98122.56;5076055;28;20364;-66
2024/01/07 04:56:44;;;;;;;40.28;23.73;;;;;;;10.21;100.00;98083.47;5075216;28;20037;-64
2024/01/07 04:59:09;;;;;;;42.90;23.75;;;;;;;10.05;100.00;98047.59;5076191;28;20388;-65
2024/01/07 05:01:35;;;;;;;45.88;23.48;;;;;;;10.23;100.00;98071.66;5073806;28;20052;-63
2024/01/07 05:04:04;;;;;;;42.80;22.80;;;;;;;10.43;100.00;98081.50;5075223;28;20249;-65
2024/01/07 05:06:29;;;;;;;38.08;21.98;;;;;;;10.35;100.00;98082.47;5074543;28;20036;-64
2024/01/07 05:08:55;;;;;;;39.28;22.40;;;;;;;10.55;100.00;98077.22;5075571;28;20063;-64
2024/01/07 05:11:20;;;;;;;38.17;22.00;;;;;;;10.61;100.00;98070.31;5074858;28;20040;-65
2024/01/07 05:13:46;;;;;;;33.97;21.98;;;;;;;10.71;100.00;98068.06;5074773;28;20342;-63
2024/01/07 05:16:21;;;;;;;33.90;21.58;;;;;;;10.61;100.00;98070.31;5076359;28;20091;-64
2024/01/07 05:18:48;;;;;;;38.45;22.48;;;;;;;10.74;100.00;98063.19;5075573;28;20214;-63
2024/01/07 05:21:16;;;;;;;40.03;23.40;;;;;;;10.85;100.00;98091.69;5074368;28;20060;-65
2024/01/07 05:23:41;;;;;;;36.55;21.73;;;;;;;10.91;100.00;98092.72;5074297;28;20241;-64
2024/01/07 05:26:07;;;;;;;37.53;22.73;;;;;;;10.87;100.00;98065.84;5076124;28;20044;-64
2024/01/07 05:28:32;;;;;;;38.25;22.10;;;;;;;10.95;100.00;98059.50;5074411;28;20399;-64
2024/01/07 05:30:58;;;;;;;36.13;21.05;;;;;;;11.00;100.00;98072.13;5075606;28;20323;-64
2024/01/07 05:33:23;;;;;;;34.90;21.83;;;;;;;10.94;100.00;98070.31;5074162;28;20162;-65
2024/01/07 05:35:49;;;;;;;38.63;22.60;;;;;;;10.82;100.00;98083.34;5076015;28;20056;-66
2024/01/07 05:38:14;;;;;;;39.83;26.80;;;;;;;10.63;100.00;98092.91;5073806;28;20466;-64
2024/01/07 05:40:40;;;;;;;40.30;26.73;;;;;;;10.69;100.00;98086.81;5075446;28;20349;-64
2024/01/07 05:43:05;;;;;;;37.28;24.98;;;;;;;10.64;100.00;98068.06;5073326;28;20024;-64
2024/01/07 05:45:31;;;;;;;32.45;21.05;;;;;;;10.41;100.00;98063.19;5075100;28;20330;-63
2024/01/07 05:47:56;;;;;;;37.80;22.40;;;;;;;10.45;100.00;98074.97;5072335;28;20384;-64
2024/01/07 05:50:22;;;;;;;31.58;22.08;;;;;;;10.51;100.00;98074.19;5074986;28;20044;-66
2024/01/07 05:52:47;;;;;;;51.97;25.63;;;;;;;10.40;100.00;98080.06;5074445;28;20284;-66
2024/01/07 05:55:13;;;;;;;40.63;24.00;;;;;;;10.45;100.00;98082.91;5078004;28;20032;-63
2024/01/07 05:57:39;;;;;;;36.15;21.60;;;;;;;10.53;100.00;98079.28;5078840;28;20028;-64
2024/01/07 06:00:05;;;;;;;38.55;22.05;;;;;;;10.41;100.00;98087.00;5076201;28;20041;-64
2024/01/07 06:02:30;;;;;;;39.97;24.73;;;;;;;10.39;100.00;98081.06;5078360;28;20063;-64
2024/01/07 06:04:56;;;;;;;43.05;31.20;;;;;;;10.28;100.00;98071.06;5076925;28;20044;-64
2024/01/07 06:07:21;;;;;;;49.78;33.05;;;;;;;10.19;100.00;98069.59;5078177;28;20127;-66
2024/01/07 06:09:48;;;;;;;51.08;32.92;;;;;;;10.15;100.00;98076.28;5077134;28;20269;-64
2024/01/07 06:12:13;;;;;;;46.63;31.52;;;;;;;10.29;100.00;98069.22;5077761;28;20086;-64
2024/01/07 06:14:39;;;;;;;45.80;31.85;;;;;;;10.42;100.00;98064.00;5075190;28;20390;-63
2024/01/07 06:17:05;;;;;;;42.83;29.92;;;;;;;10.51;100.00;98050.34;5076814;28;20280;-64
2024/01/07 06:19:30;;;;;;;39.15;26.33;;;;;;;10.55;100.00;98048.13;5077419;28;20391;-64
2024/01/07 06:21:56;;;;;;;38.65;26.80;;;;;;;10.62;100.00;98053.41;5077082;28;20028;-65
2024/01/07 06:24:22;;;;;;;39.00;25.65;;;;;;;10.55;100.00;98064.81;5078119;28;20036;-65
2024/01/07 06:26:47;;;;;;;38.67;25.75;;;;;;;10.54;100.00;98062.38;5078290;28;20214;-63
2024/01/07 06:29:13;;;;;;;36.30;24.17;;;;;;;10.48;100.00;98061.34;5077904;28;20036;-64
2024/01/07 06:31:48;;;;;;;42.20;30.33;;;;;;;10.52;100.00;98061.75;5077423;28;20048;-64
2024/01/07 06:34:14;;;;;;;44.58;30.58;;;;;;;10.35;100.00;98085.13;5077132;28;20635;-64
2024/01/07 06:36:43;;;;;;;40.38;25.15;;;;;;;10.18;100.00;98074.06;5076516;28;20036;-65
2024/01/07 06:39:08;;;;;;;50.13;25.58;;;;;;;10.27;100.00;98071.25;5077929;28;20067;-66
2024/01/07 06:41:35;;;;;;;34.85;23.02;;;;;;;10.40;100.00;98055.41;5076754;28;20040;-63
2024/01/07 06:44:01;;;;;;;44.25;23.38;;;;;;;10.26;100.00;98069.63;5078895;28;20326;-63
2024/01/07 06:46:27;;;;;;;35.80;23.08;;;;;;;10.39;100.00;98067.00;5075685;28;20108;-64
2024/01/07 06:48:52;;;;;;;37.75;23.65;;;;;;;10.55;100.00;98069.28;5078009;28;20035;-65
2024/01/07 06:51:18;;;;;;;36.50;21.92;;;;;;;10.67;100.00;98065.03;5076916;28;20040;-64
2024/01/07 06:53:43;;;;;;;38.85;24.67;;;;;;;10.67;100.00;98061.56;5077701;28;20091;-66
2024/01/07 06:56:09;;;;;;;49.58;26.65;;;;;;;10.80;100.00;98057.06;5077378;28;20059;-65
2024/01/07 06:58:34;;;;;;;62.30;38.00;;;;;;;10.77;100.00;98062.78;5077704;28;20040;-64
2024/01/07 07:01:00;;;;;;;56.72;34.20;;;;;;;10.92;100.00;98078.47;5074604;28;20282;-63
2024/01/07 07:03:26;;;;;;;46.88;30.73;;;;;;;10.98;100.00;98071.53;5076693;28;20044;-65
2024/01/07 07:05:51;;;;;;;49.22;30.48;;;;;;;10.98;100.00;98090.06;5074194;28;20795;-64
2024/01/07 07:08:17;;;;;;;51.80;30.33;;;;;;;11.11;100.00;98098.81;5076404;28;20032;-64
2024/01/07 07:10:42;;;;;;;47.85;29.92;;;;;;;11.15;100.00;98102.69;5077009;28;20041;-64
2024/01/07 07:13:08;;;;;;;49.17;29.77;;;;;;;11.18;100.00;98115.53;5074938;28;20490;-64
2024/01/07 07:15:34;;;;;;;47.60;30.83;;;;;;;11.13;100.00;98117.97;5077370;28;20078;-66
2024/01/07 07:17:59;;;;;;;49.08;29.88;;;;;;;11.22;100.00;98117.75;5075282;28;20028;-66
2024/01/07 07:20:25;;;;;;;47.42;29.73;;;;;;;11.22;100.00;98115.09;5077020;28;20036;-62
2024/01/07 07:22:50;;;;;;;55.95;29.05;;;;;;;11.24;100.00;98111.22;5075851;28;20033;-64
2024/01/07 07:25:16;;;;;;;42.13;27.23;;;;;;;11.26;100.00;98121.63;5077208;28;20111;-63
2024/01/07 07:27:42;;;;;;;45.88;28.08;;;;;;;11.02;100.00;98120.41;5075683;28;20044;-64
2024/01/07 07:30:08;;;;;;;54.53;27.92;;;;;;;10.49;100.00;98117.72;5076921;28;20220;-64
2024/01/07 07:32:33;;;;;;;31.67;21.80;;;;;;;10.59;100.00;98107.56;5075472;28;20037;-63
2024/01/07 07:34:59;;;;;;;40.90;23.48;;;;;;;10.63;100.00;98108.78;5075936;28;20040;-63
2024/01/07 07:37:25;;;;;;;35.53;22.80;;;;;;;10.58;100.00;98113.88;5076000;28;20039;-63
2024/01/07 07:39:50;;;;;;;34.30;20.27;;;;;;;10.71;100.00;98102.50;5075945;28;20245;-63
2024/01/07 07:42:16;;;;;;;26.30;17.35;;;;;;;10.61;100.00;98100.25;5075864;28;20094;-64
2024/01/07 07:44:42;;;;;;;38.20;18.48;;;;;;;9.99;100.00;98124.25;5076075;28;20044;-62
2024/01/07 07:47:11;;;;;;;30.15;18.90;;;;;;;9.90;100.00;98121.78;5076551;28;20020;-62
2024/01/07 07:49:39;;;;;;;31.35;21.23;;;;;;;10.15;100.00;98110.69;5075032;28;20139;-64
2024/01/07 07:52:07;;;;;;;34.97;21.77;;;;;;;10.16;100.00;98125.53;5073043;28;20033;-64
2024/01/07 07:54:32;;;;;;;35.00;20.15;;;;;;;10.17;100.00;98121.88;5076512;28;20032;-64
2024/01/07 07:56:58;;;;;;;28.77;18.42;;;;;;;10.09;100.00;98125.50;5076186;28;20039;-63
2024/01/07 07:59:23;;;;;;;30.90;19.73;;;;;;;10.08;100.00;98115.13;5075975;28;20050;-64
2024/01/07 08:01:49;;;;;;;36.00;17.73;;;;;;;10.01;100.00;98107.16;5077521;28;20060;-64
2024/01/07 08:04:15;;;;;;;24.73;14.38;;;;;;;10.06;100.00;98107.41;5076095;28;20056;-65
2024/01/07 08:06:42;;;;;;;25.05;13.60;;;;;;;10.09;100.00;98104.34;5075836;28;20028;-63
2024/01/07 08:09:08;;;;;;;22.38;13.98;;;;;;;10.11;100.00;98099.69;5075982;28;20059;-63
2024/01/07 08:11:34;;;;;;;25.83;15.95;;;;;;;10.20;100.00;98090.56;5075987;28;20067;-64
2024/01/07 08:14:01;;;;;;;29.33;15.68;;;;;;;10.29;100.00;98080.63;5075038;28;20062;-64
2024/01/07 08:16:27;;;;;;;21.88;14.05;;;;;;;10.44;100.00;98083.13;5075568;28;20028;-65
2024/01/07 08:18:56;;;;;;;24.98;15.60;;;;;;;10.54;100.00;98099.41;5075949;28;20032;-63
2024/01/07 08:21:22;;;;;;;30.17;17.63;;;;;;;10.68;100.00;98110.84;5075661;28;20041;-67
2024/01/07 08:23:48;;;;;;;41.33;25.88;;;;;;;10.80;100.00;98098.63;5076132;28;20333;-66
2024/01/07 08:26:19;;;;;;;24.15;13.68;;;;;;;10.83;100.00;98093.75;5076167;28;20043;-65
2024/01/07 08:28:44;;;;;;;19.35;11.90;;;;;;;10.92;100.00;98082.94;5076006;28;20036;-63
2024/01/07 08:31:10;;;;;;;21.27;12.68;;;;;;;11.03;100.00;98087.63;5076651;28;20052;-63
2024/01/07 08:33:35;;;;;;;18.17;10.10;;;;;;;11.09;100.00;98095.56;5076215;28;20296;-63
2024/01/07 08:36:01;;;;;;;18.23;12.73;;;;;;;11.15;100.00;98093.91;5075937;28;20341;-65
2024/01/07 08:38:27;;;;;;;14.23;9.35;;;;;;;11.20;100.00;98094.13;5075521;28;20051;-64
2024/01/07 08:40:52;;;;;;;13.45;9.02;;;;;;;11.30;100.00;98107.75;5076181;28;20060;-63
2024/01/07 08:43:18;;;;;;;13.18;9.52;;;;;;;11.37;100.00;98107.75;5076240;28;20070;-63
2024/01/07 08:45:43;;;;;;;14.93;8.00;;;;;;;11.47;100.00;98111.63;5076327;28;20388;-64
2024/01/07 08:48:09;;;;;;;13.38;7.93;;;;;;;11.54;100.00;98108.97;5076028;28;20062;-64
2024/01/07 08:50:35;;;;;;;5.65;3.45;;;;;;;11.55;100.00;98109.78;5076136;28;20040;-63
2024/01/07 08:53:00;;;;;;;4.82;2.67;;;;;;;11.55;100.00;98096.53;5075833;28;20337;-66
2024/01/07 08:55:27;;;;;;;4.93;1.92;;;;;;;11.64;100.00;98104.03;5076248;28;20044;-64
2024/01/07 08:57:52;;;;;;;4.18;1.60;;;;;;;11.64;100.00;98103.22;5075822;28;20075;-64
2024/01/07 09:00:19;;;;;;;3.13;1.38;;;;;;;11.68;100.00;98105.25;5076008;28;20029;-64
2024/01/07 09:02:44;;;;;;;2.55;1.27;;;;;;;11.57;100.00;98111.19;5075588;28;20388;-63
2024/01/07 09:05:12;;;;;;;1.60;1.10;;;;;;;11.65;100.00;98102.19;5075542;28;20048;-66
2024/01/07 09:07:38;;;;;;;1.55;0.98;;;;;;;11.67;100.00;98111.56;5074698;28;20042;-64
2024/01/07 09:10:08;;;;;;;0.80;0.80;;;;;;;11.65;100.00;98105.66;5075084;28;20032;-64
2024/01/07 09:12:34;;;;;;;1.40;0.93;;;;;;;11.68;100.00;98102.59;5074622;28;20195;-63
2024/01/07 09:14:59;;;;;;;3.55;1.20;;;;;;;11.72;100.00;98093.19;5074840;28;20047;-63
2024/01/07 09:17:25;;;;;;;1.63;1.00;;;;;;;11.84;100.00;98090.75;5074424;28;20040;-65
2024/01/07 09:19:50;;;;;;;1.80;1.00;;;;;;;11.87;100.00;98090.31;5074855;28;20048;-63
2024/01/07 09:22:16;;;;;;;2.75;1.20;;;;;;;11.74;100.00;98085.84;5074159;28;20047;-63
2024/01/07 09:24:41;;;;;;;2.70;1.08;;;;;;;11.73;100.00;98078.09;5075475;28;20040;-64
2024/01/07 09:27:07;;;;;;;4.15;1.50;;;;;;;11.71;100.00;98080.16;5075512;28;20266;-64
2024/01/07 09:29:32;;;;;;;2.97;0.90;;;;;;;11.80;100.00;98068.31;5078630;28;20054;-66
2024/01/07 09:31:59;;;;;;;2.67;1.42;;;;;;;11.81;100.00;98068.09;5078701;28;20043;-64
2024/01/07 09:34:24;;;;;;;4.90;1.02;;;;;;;11.87;100.00;98053.19;5079168;28;20322;-63
2024/01/07 09:36:50;;;;;;;2.97;1.02;;;;;;;11.95;100.00;98055.59;5078531;28;20041;-64
2024/01/07 09:39:15;;;;;;;1.83;1.02;;;;;;;11.98;100.00;98049.06;5079284;28;20039;-63
2024/01/07 09:41:41;;;;;;;2.90;1.20;;;;;;;12.00;100.00;98047.00;5079153;28;20036;-64
2024/01/07 09:44:08;;;;;;;3.38;1.02;;;;;;;12.05;100.00;98055.16;5078540;28;20032;-62
2024/01/07 09:46:37;;;;;;;3.38;2.20;;;;;;;12.07;100.00;98053.91;5077480;28;20044;-62
2024/01/07 09:49:03;;;;;;;2.05;1.38;;;;;;;12.10;100.00;98047.34;5078386;28;20450;-62
2024/01/07 09:51:34;;;;;;;4.25;3.53;;;;;;;12.15;100.00;98040.38;5079446;28;20346;-63
2024/01/07 09:54:05;;;;;;;4.53;2.88;;;;;;;12.19;100.00;98040.78;5079486;28;20028;-65
2024/01/07 09:56:47;;;;;;;2.10;1.45;;;;;;;12.25;100.00;98036.44;5079849;28;20107;-63
2024/01/07 09:59:15;;;;;;;5.15;1.20;;;;;;;12.32;100.00;98029.25;5077728;28;20060;-63
2024/01/07 10:01:40;;;;;;;3.53;1.15;;;;;;;12.35;100.00;98011.06;5079131;28;20403;-63
2024/01/07 10:04:06;;;;;;;7.20;3.95;;;;;;;12.38;100.00;98007.97;5079840;28;20032;-63
2024/01/07 10:06:31;;;;;;;7.85;6.47;;;;;;;12.39;100.00;98003.47;5079439;28;20199;-65
2024/01/07 10:08:59;;;;;;;3.83;2.90;;;;;;;12.43;100.00;98002.03;5079852;28;20345;-66
2024/01/07 10:11:24;;;;;;;4.20;1.70;;;;;;;12.46;100.00;98002.41;5079743;28;20346;-65
2024/01/07 10:13:51;;;;;;;3.38;2.50;;;;;;;12.53;100.00;97998.91;5078390;28;20040;-63
2024/01/07 10:16:17;;;;;;;4.50;3.00;;;;;;;12.53;100.00;97988.28;5079160;28;20044;-63
2024/01/07 10:18:44;;;;;;;6.18;1.67;;;;;;;12.61;100.00;97988.00;5079065;28;20338;-64
2024/01/07 10:21:09;;;;;;;2.83;1.35;;;;;;;12.68;100.00;97978.16;5079047;28;20064;-66
2024/01/07 10:23:35;;;;;;;6.43;1.88;;;;;;;12.75;100.00;97973.59;5078804;28;20028;-64
2024/01/07 10:26:02;;;;;;;4.07;1.48;;;;;;;12.78;100.00;97981.13;5078124;28;20040;-64
2024/01/07 10:28:27;;;;;;;2.70;1.55;;;;;;;12.88;100.00;97984.09;5078574;28;20330;-65
2024/01/07 10:30:53;;;;;;;8.80;2.40;;;;;;;12.92;100.00;97972.00;5076767;28;20037;-63
2024/01/07 10:33:19;;;;;;;4.72;1.20;;;;;;;12.99;100.00;97975.38;5078379;28;20029;-66
2024/01/07 10:35:53;;;;;;;10.38;5.20;;;;;;;13.06;100.00;97975.31;5079340;28;20036;-66
2024/01/07 10:38:19;;;;;;;18.42;8.80;;;;;;;13.13;100.00;97959.31;5078760;28;20100;-64
2024/01/07 10:40:47;;;;;;;6.57;2.75;;;;;;;13.15;100.00;97951.91;5078904;28;20106;-63
2024/01/07 10:43:15;;;;;;;3.05;1.40;;;;;;;13.23;100.00;97951.66;5078437;28;20047;-63
2024/01/07 10:45:40;;;;;;;3.15;1.10;;;;;;;13.25;100.00;97936.28;5078263;28;20079;-63
2024/01/07 10:48:09;;;;;;;8.70;1.33;;;;;;;13.29;100.00;97940.13;5078351;28;20029;-65
2024/01/07 10:50:34;;;;;;;4.30;1.10;;;;;;;13.32;100.00;97929.84;5078644;28;20040;-65
2024/01/07 10:53:07;;;;;;;9.18;1.77;;;;;;;13.34;100.00;97929.63;5078604;28;20036;-65
2024/01/07 10:55:37;;;;;;;4.55;1.38;;;;;;;13.41;100.00;97920.53;5078367;28;20203;-63
2024/01/07 10:58:04;;;;;;;5.38;1.83;;;;;;;13.43;100.00;97918.47;5078747;28;20269;-63
2024/01/07 11:00:31;;;;;;;4.95;1.85;;;;;;;13.50;100.00;97921.03;5078338;28;20085;-64
2024/01/07 11:03:17;;;;;;;7.93;2.45;;;;;;;13.54;100.00;97918.78;5078697;28;20037;-64
2024/01/07 11:05:56;;;;;;;4.35;1.70;;;;;;;13.58;100.00;97912.78;5078393;28;20070;-64
2024/01/07 11:08:46;;;;;;;8.88;3.38;;;;;;;13.69;100.00;97914.66;5078432;28;20047;-65
2024/01/07 11:11:27;;;;;;;6.00;2.45;;;;;;;13.80;100.00;97910.44;5077655;28;20047;-65